Time;durP1;ratioP1;P1;durP2;ratioP2;P2;SDS_P1;SDS_P2;PMS_P1;PMS_P2;Temp;Humidity;BMP_temperature;BMP_pressure;BME280_temperature;BME280_humidity;BME280_pressure;Samples;Min_cycle;Max_cycle;Signal;HPM_P1;HPM_P2
2021/03/14 00:00:39;;;;;;;5.10;1.33;;;4.40;94.20;;;;;;4863546;29;20498;-88
2021/03/14 00:06:28;;;;;;;0.63;0.57;;;4.20;94.20;;;;;;4863333;29;20041;-87
2021/03/14 00:12:17;;;;;;;1.15;0.73;;;4.20;94.40;;;;;;4863334;29;20033;-87
2021/03/14 00:22:07;;;;;;;3.03;1.35;;;4.10;94.30;;;;;;4863582;29;20045;-87
2021/03/14 00:27:56;;;;;;;2.25;1.08;;;4.10;94.40;;;;;;4873413;29;20036;-87
2021/03/14 00:33:46;;;;;;;2.83;1.30;;;4.10;94.50;;;;;;4862949;29;20554;-87
2021/03/14 00:39:35;;;;;;;1.10;0.88;;;4.10;94.70;;;;;;4863197;29;20391;-88
2021/03/14 00:45:23;;;;;;;1.58;0.98;;;4.10;94.70;;;;;;4862984;29;20040;-88
2021/03/14 00:51:11;;;;;;;2.65;0.98;;;4.20;94.70;;;;;;4862437;29;20043;-87
2021/03/14 00:56:59;;;;;;;0.68;0.68;;;4.20;94.90;;;;;;4862690;29;20048;-88
2021/03/14 01:02:48;;;;;;;6.03;1.65;;;4.30;94.80;;;;;;4862485;29;20033;-88
2021/03/14 01:08:36;;;;;;;0.52;0.52;;;4.20;94.70;;;;;;4862794;29;20165;-87
2021/03/14 01:14:25;;;;;;;5.07;1.65;;;4.20;94.70;;;;;;4862790;29;20084;-87
2021/03/14 01:24:08;;;;;;;3.53;1.33;;;4.30;94.90;;;;;;4862719;29;20061;-89
2021/03/14 01:29:56;;;;;;;1.92;1.27;;;4.30;95.10;;;;;;4862973;29;20120;-88
2021/03/14 01:35:45;;;;;;;2.42;1.48;;;4.20;94.60;;;;;;4863049;29;20093;-89
2021/03/14 01:41:34;;;;;;;0.88;0.88;;;4.20;94.80;;;;;;4861983;29;20037;-89
2021/03/14 01:47:37;;;;;;;7.10;2.25;;;4.30;95.00;;;;;;4861698;29;20144;-89
2021/03/14 01:53:26;;;;;;;6.47;2.13;;;4.40;95.00;;;;;;4861832;29;20093;-90
2021/03/14 01:59:15;;;;;;;6.93;1.88;;;4.50;95.00;;;;;;4861671;29;20032;-87
2021/03/14 02:05:10;;;;;;;10.05;2.92;;;4.40;94.80;;;;;;4861740;29;20040;-86
2021/03/14 02:10:58;;;;;;;8.43;2.72;;;4.40;94.60;;;;;;4861406;29;20037;-86
2021/03/14 02:16:49;;;;;;;8.27;2.88;;;4.30;94.90;;;;;;4861355;29;20432;-87
2021/03/14 02:26:44;;;;;;;5.80;2.25;;;4.40;94.80;;;;;;4861541;29;20580;-87
2021/03/14 02:32:34;;;;;;;6.68;2.70;;;4.50;95.00;;;;;;4861223;29;20037;-87
2021/03/14 02:38:23;;;;;;;10.73;3.00;;;4.50;95.00;;;;;;4864994;29;20103;-87
2021/03/14 02:44:14;;;;;;;7.60;2.50;;;4.60;95.00;;;;;;4864907;29;20032;-86
2021/03/14 02:50:08;;;;;;;6.95;2.47;;;4.70;95.00;;;;;;4864959;29;20044;-86
2021/03/14 02:55:58;;;;;;;5.88;2.55;;;4.70;95.00;;;;;;4864513;29;20090;-86
2021/03/14 03:01:49;;;;;;;9.50;3.20;;;4.80;94.90;;;;;;4864420;29;20577;-87
2021/03/14 03:07:39;;;;;;;12.95;3.45;;;4.70;94.90;;;;;;4864754;29;20166;-86
2021/03/14 03:13:28;;;;;;;10.32;3.25;;;4.70;94.90;;;;;;4864380;29;20068;-87
2021/03/14 03:19:20;;;;;;;8.70;2.97;;;4.80;94.90;;;;;;4864320;29;20424;-87
2021/03/14 03:29:12;;;;;;;11.38;3.35;;;4.80;94.90;;;;;;4864104;29;20048;-87
2021/03/14 03:35:00;;;;;;;9.00;3.10;;;4.80;94.90;;;;;;4863774;29;20056;-87
2021/03/14 03:40:49;;;;;;;6.22;2.40;;;4.80;94.90;;;;;;4864030;29;20068;-87
2021/03/14 03:46:39;;;;;;;11.25;3.38;;;4.80;94.90;;;;;;4863193;29;20039;-86
2021/03/14 03:52:29;;;;;;;14.70;3.15;;;4.80;95.10;;;;;;4864067;29;20117;-87
2021/03/14 03:58:18;;;;;;;8.10;2.22;;;4.80;94.90;;;;;;4863856;29;20490;-86
2021/03/14 04:04:07;;;;;;;2.35;1.48;;;4.70;94.70;;;;;;4863500;29;20087;-87
2021/03/14 04:09:55;;;;;;;2.25;1.40;;;4.70;94.90;;;;;;4863486;29;20453;-87
2021/03/14 04:15:44;;;;;;;7.03;1.90;;;4.70;94.80;;;;;;4863223;29;20475;-87
2021/03/14 04:21:33;;;;;;;1.38;1.20;;;4.70;94.90;;;;;;4863062;29;20044;-88
2021/03/14 04:31:16;;;;;;;4.38;2.03;;;4.60;94.80;;;;;;4863257;29;20081;-88
2021/03/14 04:37:06;;;;;;;5.30;1.88;;;4.60;94.70;;;;;;4862952;29;20390;-86
2021/03/14 04:42:56;;;;;;;2.65;1.38;;;4.50;94.70;;;;;;4862960;29;20048;-86
2021/03/14 04:48:45;;;;;;;3.05;1.70;;;4.50;94.70;;;;;;4862576;29;20081;-86
2021/03/14 04:54:34;;;;;;;7.47;1.63;;;4.40;94.70;;;;;;4862474;29;20079;-87
2021/03/14 05:00:23;;;;;;;1.52;1.40;;;4.30;94.50;;;;;;4862290;29;20036;-87
2021/03/14 05:06:16;;;;;;;3.40;1.33;;;4.30;94.70;;;;;;4862593;29;20052;-86
2021/03/14 05:12:05;;;;;;;1.40;1.13;;;4.30;94.80;;;;;;4863338;29;20032;-87
2021/03/14 05:17:54;;;;;;;9.25;1.85;;;4.30;94.80;;;;;;4862582;29;20049;-87
2021/03/14 05:23:43;;;;;;;5.85;1.67;;;4.30;94.90;;;;;;4863509;29;20078;-87
2021/03/14 05:33:26;;;;;;;0.85;0.85;;;4.30;94.50;;;;;;4863166;29;20509;-86
2021/03/14 05:39:15;;;;;;;0.52;0.52;;;4.20;94.70;;;;;;4863136;29;20089;-87
2021/03/14 05:45:06;;;;;;;0.85;0.70;;;4.20;94.70;;;;;;4863587;29;20546;-87
2021/03/14 05:50:54;;;;;;;8.52;2.50;;;4.10;94.70;;;;;;4861884;29;20076;-88
2021/03/14 05:56:48;;;;;;;5.47;1.75;;;4.10;94.80;;;;;;4862169;29;20052;-89
2021/03/14 06:02:39;;;;;;;5.20;1.52;;;4.20;94.90;;;;;;4862046;29;20036;-88
2021/03/14 06:08:30;;;;;;;3.15;1.35;;;4.20;94.80;;;;;;4861666;29;20390;-89
2021/03/14 06:14:19;;;;;;;3.25;1.30;;;4.20;94.80;;;;;;4865738;29;20452;-88
2021/03/14 06:20:10;;;;;;;9.68;2.95;;;4.30;94.90;;;;;;4865224;29;20130;-87
2021/03/14 06:25:58;;;;;;;9.48;3.13;;;4.30;94.80;;;;;;4865222;29;20077;-87
2021/03/14 06:35:52;;;;;;;5.53;2.08;;;4.50;95.00;;;;;;4865225;29;20525;-83
2021/03/14 06:51:59;;;;;;;5.97;2.70;;;4.80;95.00;;;;;;4864857;29;20101;-80
2021/03/14 06:57:48;;;;;;;13.95;4.50;;;4.80;94.80;;;;;;4864682;29;20390;-78
2021/03/14 07:03:38;;;;;;;19.15;5.47;;;4.90;94.90;;;;;;4864396;29;20453;-81
2021/03/14 07:09:27;;;;;;;14.75;3.45;;;5.00;95.00;;;;;;4864252;29;20045;-83
2021/03/14 07:15:17;;;;;;;13.15;3.45;;;5.00;94.80;;;;;;4864222;29;20517;-82
2021/03/14 07:21:24;;;;;;;18.95;4.07;;;5.00;94.80;;;;;;4863227;29;20124;-82
2021/03/14 07:27:20;;;;;;;15.77;4.10;;;5.20;95.00;;;;;;4864245;29;20044;-82
2021/03/14 07:36:48;;;;;;;6.88;2.20;;;5.20;94.80;;;;;;4864125;29;20403;-82
2021/03/14 07:42:36;;;;;;;12.13;3.17;;;5.20;94.70;;;;;;4864012;29;20098;-82
2021/03/14 07:48:25;;;;;;;18.45;5.22;;;5.40;94.80;;;;;;4863732;29;20032;-82
2021/03/14 07:54:26;;;;;;;17.67;4.65;;;5.50;95.00;;;;;;4863517;29;20069;-82
2021/03/14 08:00:23;;;;;;;17.92;4.90;;;5.60;94.70;;;;;;4863740;29;20040;-84
2021/03/14 08:06:11;;;;;;;5.40;2.28;;;5.30;94.30;;;;;;4863550;29;20125;-83
2021/03/14 08:12:19;;;;;;;15.57;4.93;;;5.40;94.50;;;;;;4863125;29;20025;-81
2021/03/14 08:18:47;;;;;;;14.63;4.85;;;5.40;94.50;;;;;;4863280;29;20040;-84
2021/03/14 08:24:30;;;;;;;7.82;2.42;;;5.50;94.80;;;;;;4863013;29;20049;-82
2021/03/14 08:30:31;;;;;;;3.75;1.83;;;5.60;94.80;;;;;;4862953;29;20050;-82
2021/03/14 08:36:42;;;;;;;14.80;4.82;;;5.70;94.70;;;;;;4863060;29;20109;-82
2021/03/14 08:42:49;;;;;;;16.73;5.75;;;5.80;94.80;;;;;;4863013;29;20036;-82
2021/03/14 08:48:38;;;;;;;11.82;4.07;;;5.90;94.70;;;;;;4862845;29;20041;-83
2021/03/14 08:54:30;;;;;;;8.38;3.20;;;5.90;94.80;;;;;;4862428;29;20117;-83
2021/03/14 09:00:20;;;;;;;10.98;3.60;;;6.50;95.10;;;;;;4862509;29;20040;-83
2021/03/14 09:06:26;;;;;;;6.32;2.63;;;6.90;95.10;;;;;;4862223;29;20098;-81
2021/03/14 09:12:19;;;;;;;7.13;2.20;;;7.20;94.60;;;;;;4862800;29;20048;-82
2021/03/14 09:18:08;;;;;;;11.52;3.92;;;7.00;93.70;;;;;;4862360;29;20040;-81
2021/03/14 09:23:56;;;;;;;4.35;2.05;;;7.00;93.90;;;;;;4861911;29;20070;-81
2021/03/14 09:29:48;;;;;;;7.18;2.80;;;7.30;94.70;;;;;;4861902;29;20034;-82
2021/03/14 09:39:26;;;;;;;14.32;4.35;;;7.40;93.40;;;;;;4862150;29;20506;-82
2021/03/14 09:45:17;;;;;;;14.75;4.43;;;7.30;93.70;;;;;;4861184;29;20073;-82
2021/03/14 09:51:09;;;;;;;12.63;3.28;;;7.50;94.80;;;;;;4861702;29;20044;-83
2021/03/14 09:56:58;;;;;;;11.55;4.00;;;8.10;94.70;;;;;;4861642;29;20128;-82
2021/03/14 10:02:48;;;;;;;5.38;2.75;;;8.60;94.70;;;;;;4861816;29;20190;-82
2021/03/14 10:08:39;;;;;;;6.35;2.95;;;8.90;94.40;;;;;;4861687;29;20399;-83
2021/03/14 10:14:28;;;;;;;11.98;4.53;;;8.70;93.50;;;;;;4861452;29;20052;-82
2021/03/14 10:20:20;;;;;;;4.63;2.42;;;8.70;93.70;;;;;;4861504;29;20032;-83
2021/03/14 10:26:11;;;;;;;5.03;2.30;;;8.50;93.40;;;;;;4861424;29;20033;-83
2021/03/14 10:31:59;;;;;;;7.75;2.45;;;8.60;93.80;;;;;;4861453;29;20044;-82
2021/03/14 10:41:45;;;;;;;7.13;2.95;;;9.40;95.00;;;;;;4879691;29;20069;-83
2021/03/14 10:47:33;;;;;;;4.68;2.30;;;10.40;94.60;;;;;;4879898;29;20044;-82
2021/03/14 10:53:22;;;;;;;6.80;2.08;;;10.90;93.40;;;;;;4879492;29;20165;-81
2021/03/14 10:59:47;;;;;;;4.82;1.70;;;10.70;91.50;;;;;;4882998;29;20077;-83
2021/03/14 11:05:35;;;;;;;8.48;2.40;;;10.30;92.30;;;;;;4807411;29;20103;-83
2021/03/14 11:11:45;;;;;;;4.00;2.40;;;9.70;93.00;;;;;;4807473;29;20088;-81
2021/03/14 11:17:36;;;;;;;7.20;2.40;;;10.50;93.10;;;;;;4807581;29;20076;-82
2021/03/14 11:23:24;;;;;;;2.33;1.40;;;11.20;93.80;;;;;;4807281;29;20090;-82
2021/03/14 11:29:11;;;;;;;1.42;1.33;;;12.10;94.10;;;;;;4826759;29;20426;-82
2021/03/14 11:35:00;;;;;;;2.08;1.70;;;12.60;93.30;;;;;;4882863;29;20405;-85
2021/03/14 11:44:49;;;;;;;5.38;1.70;;;12.00;90.90;;;;;;4882444;29;20044;-84
2021/03/14 11:50:38;;;;;;;4.25;1.92;;;11.60;93.00;;;;;;4882579;29;20390;-82
2021/03/14 11:56:28;;;;;;;4.15;1.77;;;12.90;93.80;;;;;;4882324;29;20112;-82
2021/03/14 12:02:17;;;;;;;4.60;2.08;;;12.60;90.30;;;;;;4881928;29;20189;-82
2021/03/14 12:08:05;;;;;;;6.13;2.00;;;13.20;92.40;;;;;;4881515;29;20488;-82
2021/03/14 12:13:54;;;;;;;2.47;1.58;;;13.00;92.80;;;;;;4881751;29;20052;-82
2021/03/14 12:19:43;;;;;;;4.15;1.75;;;13.20;90.30;;;;;;4881679;29;20031;-82
2021/03/14 12:25:32;;;;;;;5.75;2.47;;;11.60;86.80;;;;;;4881676;29;20076;-82
2021/03/14 12:31:21;;;;;;;6.00;2.08;;;12.40;92.00;;;;;;4881659;29;20086;-84
2021/03/14 12:37:09;;;;;;;2.85;1.80;;;12.70;93.50;;;;;;4881600;29;20378;-82
2021/03/14 12:46:52;;;;;;;2.40;1.48;;;13.70;92.20;;;;;;4881459;29;20051;-83
2021/03/14 12:52:41;;;;;;;6.10;2.00;;;12.30;90.00;;;;;;4881516;29;20386;-83
2021/03/14 12:58:29;;;;;;;4.82;2.25;;;10.80;88.10;;;;;;4881099;29;20052;-84
2021/03/14 13:04:18;;;;;;;3.83;1.92;;;9.40;91.90;;;;;;4881216;29;20043;-84
2021/03/14 13:10:08;;;;;;;3.85;1.23;;;11.80;95.00;;;;;;4880740;29;20538;-82
2021/03/14 13:15:57;;;;;;;6.15;2.33;;;11.50;90.30;;;;;;4881096;29;20060;-83
2021/03/14 13:21:45;;;;;;;5.97;2.10;;;10.20;89.90;;;;;;4881242;29;20554;-84
2021/03/14 13:27:33;;;;;;;11.38;2.42;;;8.60;90.50;;;;;;4881282;29;20048;-85
2021/03/14 13:33:24;;;;;;;6.43;2.05;;;9.10;94.00;;;;;;4880710;29;20032;-85
2021/03/14 13:39:12;;;;;;;5.63;1.95;;;9.20;92.50;;;;;;4880378;29;20128;-84
2021/03/14 13:48:55;;;;;;;4.70;2.22;;;8.70;92.70;;;;;;4880266;29;20040;-84
2021/03/14 13:54:44;;;;;;;5.40;2.28;;;9.80;95.70;;;;;;4880258;29;20056;-85
2021/03/14 14:00:33;;;;;;;10.43;2.72;;;10.20;94.10;;;;;;4880217;29;20545;-85
2021/03/14 14:06:21;;;;;;;3.78;1.63;;;10.30;92.70;;;;;;4880098;29;20045;-85
2021/03/14 14:12:10;;;;;;;10.40;2.45;;;9.70;92.10;;;;;;4880724;29;20075;-82
2021/03/14 14:17:58;;;;;;;10.05;2.83;;;9.50;92.70;;;;;;4880037;29;20100;-82
2021/03/14 14:23:47;;;;;;;5.47;2.42;;;9.30;92.90;;;;;;4880045;29;20489;-81
2021/03/14 14:29:36;;;;;;;3.42;1.70;;;9.30;93.20;;;;;;4879747;29;20117;-80
2021/03/14 14:35:26;;;;;;;1.90;1.23;;;9.00;93.20;;;;;;4883539;29;20056;-81
2021/03/14 14:41:15;;;;;;;4.40;1.73;;;9.00;94.10;;;;;;4883398;29;20028;-81
2021/03/14 14:50:57;;;;;;;6.18;1.88;;;9.10;93.70;;;;;;4883511;29;20128;-86
2021/03/14 14:56:46;;;;;;;4.90;1.85;;;8.90;93.50;;;;;;4883111;29;20040;-86
2021/03/14 15:02:35;;;;;;;8.43;2.85;;;9.10;94.40;;;;;;4882918;29;20184;-82
2021/03/14 15:08:24;;;;;;;8.18;2.28;;;9.40;94.00;;;;;;4882902;29;20032;-84
2021/03/14 15:14:14;;;;;;;7.07;1.50;;;9.30;93.40;;;;;;4882884;29;20071;-83
2021/03/14 15:20:03;;;;;;;3.30;1.75;;;9.10;93.20;;;;;;4882808;29;20390;-83
2021/03/14 15:25:52;;;;;;;6.15;2.40;;;9.10;93.90;;;;;;4882588;29;20040;-82
2021/03/14 15:31:40;;;;;;;4.55;2.00;;;9.30;93.80;;;;;;4882718;29;20032;-81
2021/03/14 15:37:29;;;;;;;9.63;2.75;;;9.10;93.50;;;;;;4882767;29;20067;-82
2021/03/14 15:43:17;;;;;;;7.40;2.70;;;9.00;93.40;;;;;;4881809;29;20481;-82
2021/03/14 15:53:01;;;;;;;3.83;1.98;;;8.70;93.00;;;;;;4882351;29;20504;-81
2021/03/14 15:58:50;;;;;;;6.88;2.33;;;8.40;93.20;;;;;;4882281;29;20051;-82
2021/03/14 16:04:38;;;;;;;3.03;1.35;;;8.20;93.40;;;;;;4882251;29;20043;-83
2021/03/14 16:10:26;;;;;;;5.30;2.15;;;8.10;93.50;;;;;;4882048;29;20465;-83
2021/03/14 16:16:15;;;;;;;6.25;1.95;;;8.10;93.60;;;;;;4882076;29;20052;-83
2021/03/14 16:22:14;;;;;;;;;;;;;;;;;;;;;
2021/03/14 16:28:29;;;;;;;5.43;2.30;;;7.70;93.40;;;;;;4863000;29;20533;-83
2021/03/14 16:34:20;;;;;;;4.13;1.60;;;7.60;93.50;;;;;;4862961;29;20126;-83
2021/03/14 16:40:10;;;;;;;1.83;1.35;;;7.60;93.70;;;;;;4862707;29;20040;-84
2021/03/14 16:45:59;;;;;;;6.55;2.33;;;7.60;93.80;;;;;;4862675;29;20033;-83
2021/03/14 16:55:50;;;;;;;6.10;2.17;;;7.50;93.80;;;;;;4862301;29;20192;-83
2021/03/14 17:01:39;;;;;;;7.22;2.17;;;7.50;93.60;;;;;;4862576;29;20037;-84
2021/03/14 17:07:27;;;;;;;6.93;2.20;;;7.40;93.50;;;;;;4864567;29;20106;-84
2021/03/14 17:13:16;;;;;;;5.70;2.00;;;7.30;93.20;;;;;;4863785;29;20121;-84
2021/03/14 17:19:05;;;;;;;1.38;0.98;;;7.00;93.00;;;;;;4862530;29;20035;-86
2021/03/14 17:24:53;;;;;;;1.63;1.05;;;6.70;93.20;;;;;;4862505;29;20110;-82
2021/03/14 17:30:42;;;;;;;6.22;2.65;;;6.40;93.30;;;;;;4862284;29;20068;-83
2021/03/14 17:36:31;;;;;;;1.27;1.17;;;6.10;93.00;;;;;;4861935;29;20041;-83
2021/03/14 17:42:24;;;;;;;1.50;1.10;;;6.00;93.30;;;;;;4861926;29;20085;-83
2021/03/14 17:48:12;;;;;;;4.47;1.85;;;5.80;93.30;;;;;;4861640;29;20076;-83
2021/03/14 17:57:54;;;;;;;2.13;1.13;;;5.60;93.40;;;;;;4865118;29;20043;-92
2021/03/14 18:03:43;;;;;;;3.20;1.55;;;5.60;93.50;;;;;;4861531;29;20476;-83
2021/03/14 18:09:32;;;;;;;4.55;2.17;;;5.50;93.50;;;;;;4861763;29;20048;-82
2021/03/14 18:15:20;;;;;;;7.65;3.30;;;5.40;93.60;;;;;;4861179;29;20509;-81
2021/03/14 18:21:09;;;;;;;4.22;1.88;;;5.30;93.60;;;;;;4861377;29;20037;-84
2021/03/14 18:26:57;;;;;;;2.60;1.40;;;5.20;93.60;;;;;;4861101;29;20513;-83
2021/03/14 18:32:47;;;;;;;10.55;3.63;;;5.10;93.60;;;;;;4861270;29;20102;-82
2021/03/14 18:38:36;;;;;;;10.27;2.90;;;5.10;93.70;;;;;;4861236;29;20089;-84
2021/03/14 18:44:25;;;;;;;8.23;2.90;;;5.00;93.60;;;;;;4861103;29;20029;-82
2021/03/14 18:50:14;;;;;;;2.70;1.58;;;4.80;93.50;;;;;;4861025;29;20102;-83
2021/03/14 18:59:58;;;;;;;3.83;1.42;;;4.60;93.60;;;;;;4861355;29;20070;-84
2021/03/14 19:05:48;;;;;;;7.75;2.97;;;4.50;93.70;;;;;;4861199;29;20457;-84
2021/03/14 19:11:35;;;;;;;6.50;2.30;;;4.70;94.10;;;;;;4861192;29;20070;-83
2021/03/14 19:17:23;;;;;;;6.40;2.10;;;4.70;94.00;;;;;;4861527;29;20031;-83
2021/03/14 19:23:12;;;;;;;6.45;2.20;;;4.70;94.00;;;;;;4864604;29;20043;-84
2021/03/14 19:29:00;;;;;;;23.98;10.50;;;4.60;93.90;;;;;;4863988;29;20133;-84
2021/03/14 19:34:49;;;;;;;10.20;3.13;;;4.60;93.90;;;;;;4863960;29;20086;-84
2021/03/14 19:40:37;;;;;;;8.65;3.15;;;4.50;93.70;;;;;;4864153;29;20072;-84
2021/03/14 19:46:25;;;;;;;2.63;1.30;;;4.40;93.70;;;;;;4863962;29;20103;-84
2021/03/14 19:52:14;;;;;;;3.13;1.48;;;4.30;93.90;;;;;;4864056;29;20060;-83
2021/03/14 20:01:56;;;;;;;7.53;2.85;;;4.30;93.90;;;;;;4863625;29;20073;-84
2021/03/14 20:07:44;;;;;;;9.73;4.35;;;4.20;93.70;;;;;;4863333;29;20095;-83
2021/03/14 20:13:33;;;;;;;12.20;4.05;;;4.00;93.70;;;;;;4863294;29;20084;-85
2021/03/14 20:19:22;;;;;;;10.82;3.85;;;3.90;93.70;;;;;;4863148;29;20040;-85
2021/03/14 20:25:11;;;;;;;10.27;3.45;;;3.80;93.70;;;;;;4863582;29;20391;-85
2021/03/14 20:31:00;;;;;;;8.57;2.70;;;3.70;93.70;;;;;;4863136;29;20143;-84
2021/03/14 20:36:49;;;;;;;7.65;3.58;;;3.70;93.80;;;;;;4862826;29;20072;-84
2021/03/14 20:42:38;;;;;;;23.60;7.20;;;3.70;94.10;;;;;;4862692;29;20048;-84
2021/03/14 20:48:26;;;;;;;21.23;4.97;;;3.90;94.20;;;;;;4862655;29;20077;-85
2021/03/14 20:54:15;;;;;;;19.15;7.00;;;3.90;94.10;;;;;;4862423;29;20105;-84
2021/03/14 21:03:57;;;;;;;7.22;2.63;;;4.20;94.40;;;;;;4862721;29;20426;-85
2021/03/14 21:09:45;;;;;;;18.92;5.80;;;4.20;94.40;;;;;;4862705;29;20036;-86
2021/03/14 21:15:33;;;;;;;18.83;6.63;;;4.30;94.40;;;;;;4862552;29;20402;-86
2021/03/14 21:21:22;;;;;;;16.67;6.55;;;4.30;94.20;;;;;;4862679;29;20387;-85
2021/03/14 21:27:11;;;;;;;22.45;7.47;;;4.40;94.30;;;;;;4862438;29;20097;-85
2021/03/14 21:33:02;;;;;;;17.17;5.82;;;4.40;94.30;;;;;;4862033;29;20033;-85
2021/03/14 21:38:50;;;;;;;25.38;6.13;;;4.40;94.30;;;;;;4862260;29;20145;-87
2021/03/14 21:44:39;;;;;;;18.45;4.55;;;4.40;94.20;;;;;;4862034;29;20037;-85
2021/03/14 21:50:28;;;;;;;9.93;3.58;;;4.50;94.30;;;;;;4862199;29;20037;-85
2021/03/14 21:56:18;;;;;;;25.30;7.05;;;4.50;94.30;;;;;;4862063;29;20039;-84
2021/03/14 22:06:01;;;;;;;28.33;9.30;;;4.50;94.10;;;;;;4861763;29;20514;-84
2021/03/14 22:11:49;;;;;;;21.58;6.57;;;4.40;94.10;;;;;;4861395;29;20025;-84
2021/03/14 22:17:38;;;;;;;14.75;4.10;;;4.40;94.20;;;;;;4861579;29;20178;-84
2021/03/14 22:23:28;;;;;;;30.55;8.40;;;4.40;94.10;;;;;;4861441;29;20041;-84
2021/03/14 22:29:16;;;;;;;28.80;8.15;;;4.30;94.10;;;;;;4861594;29;20037;-85
2021/03/14 22:35:07;;;;;;;17.48;4.70;;;4.30;94.00;;;;;;4861385;29;20461;-85
2021/03/14 22:40:56;;;;;;;17.27;4.80;;;4.20;93.90;;;;;;4861272;29;20113;-85
2021/03/14 22:46:45;;;;;;;29.40;7.75;;;4.10;94.10;;;;;;4861304;29;20437;-85
2021/03/14 22:52:33;;;;;;;19.10;5.00;;;4.10;94.20;;;;;;4863460;29;20410;-84
2021/03/14 22:58:22;;;;;;;3.58;2.13;;;4.20;94.60;;;;;;4864848;29;20032;-85
2021/03/14 23:08:09;;;;;;;17.05;4.38;;;4.30;94.20;;;;;;4864810;29;20542;-84
2021/03/14 23:13:58;;;;;;;27.63;7.63;;;4.20;94.10;;;;;;4864329;29;20085;-83
2021/03/14 23:19:46;;;;;;;22.55;6.60;;;4.20;94.20;;;;;;4864422;29;20484;-83
2021/03/14 23:25:38;;;;;;;8.48;3.65;;;4.20;94.30;;;;;;4864252;29;20131;-83
2021/03/14 23:31:26;;;;;;;20.13;5.68;;;4.30;94.30;;;;;;4864006;29;20040;-83
2021/03/14 23:37:15;;;;;;;17.08;5.00;;;4.30;94.30;;;;;;4863685;29;20064;-83
2021/03/14 23:43:04;;;;;;;21.13;5.93;;;4.40;94.40;;;;;;4864246;29;20521;-83
2021/03/14 23:48:54;;;;;;;19.67;5.22;;;4.40;94.30;;;;;;4863933;29;20076;-83
2021/03/14 23:54:42;;;;;;;12.77;3.42;;;4.40;94.30;;;;;;4863627;29;20551;-83
